Time;durP1;ratioP1;P1;durP2;ratioP2;P2;SDS_P1;SDS_P2;PMS_P1;PMS_P2;Temp;Humidity;BMP_temperature;BMP_pressure;BME280_temperature;BME280_humidity;BME280_pressure;Samples;Min_cycle;Max_cycle;Signal;HPM_P1;HPM_P2
2023/06/25 00:00:08;;;;;;;15.88;9.60;;;;;;;13.54;82.25;99337.13;4954085;28;20046;-63
2023/06/25 00:02:45;;;;;;;12.85;9.13;;;;;;;13.53;82.08;99346.13;4962561;28;20536;-68
2023/06/25 00:05:10;;;;;;;14.25;8.82;;;;;;;13.51;81.93;99348.94;4975645;28;20042;-68
2023/06/25 00:07:35;;;;;;;13.13;9.05;;;;;;;13.49;82.07;99334.00;4970636;28;20054;-68
2023/06/25 00:10:01;;;;;;;15.45;9.48;;;;;;;13.45;82.26;99339.59;4954541;28;20038;-66
2023/06/25 00:12:29;;;;;;;12.45;9.27;;;;;;;13.44;82.37;99340.59;4956116;28;20050;-67
2023/06/25 00:14:54;;;;;;;11.43;8.13;;;;;;;13.42;82.48;99345.25;4956377;28;20031;-67
2023/06/25 00:17:21;;;;;;;13.32;9.85;;;;;;;13.39;82.12;99336.63;4953182;28;20527;-65
2023/06/25 00:19:46;;;;;;;16.13;9.60;;;;;;;13.37;82.40;99343.94;4955882;28;20050;-65
2023/06/25 00:22:12;;;;;;;17.48;9.77;;;;;;;13.34;82.62;99353.09;4961009;28;20049;-65
2023/06/25 00:24:40;;;;;;;14.35;9.55;;;;;;;13.37;83.10;99341.28;4955112;28;20528;-65
2023/06/25 00:27:06;;;;;;;13.88;9.20;;;;;;;13.31;83.03;99364.09;4950430;28;20046;-65
2023/06/25 00:29:32;;;;;;;13.73;9.80;;;;;;;13.31;82.74;99340.00;4955587;28;20050;-65
2023/06/25 00:31:58;;;;;;;13.63;9.60;;;;;;;13.29;83.20;99323.22;4955792;28;20045;-65
2023/06/25 00:34:23;;;;;;;13.20;9.10;;;;;;;13.28;82.66;99331.38;4969301;28;20046;-65
2023/06/25 00:36:51;;;;;;;17.52;11.35;;;;;;;13.27;83.10;99333.22;4963990;28;20397;-64
2023/06/25 00:39:18;;;;;;;13.20;8.88;;;;;;;13.25;82.46;99337.84;4920942;28;20059;-65
2023/06/25 00:41:43;;;;;;;16.70;9.35;;;;;;;13.22;83.03;99354.16;4969198;28;20046;-65
2023/06/25 00:44:08;;;;;;;16.33;10.00;;;;;;;13.21;82.80;99363.16;4954490;28;20045;-65
2023/06/25 00:46:34;;;;;;;17.33;10.10;;;;;;;13.19;82.88;99343.75;4955482;28;20046;-64
2023/06/25 00:49:05;;;;;;;14.48;10.23;;;;;;;13.18;82.89;99303.72;4962653;28;20046;-64
2023/06/25 00:51:34;;;;;;;14.50;9.27;;;;;;;13.14;83.41;99334.38;4954290;28;20062;-64
2023/06/25 00:54:00;;;;;;;15.32;9.45;;;;;;;13.13;82.83;99330.00;4951199;28;20050;-66
2023/06/25 00:56:29;;;;;;;16.73;10.35;;;;;;;13.12;83.30;99330.97;4955665;28;20453;-65
2023/06/25 00:59:00;;;;;;;17.80;10.45;;;;;;;13.10;83.24;99339.97;4952873;28;20460;-67
2023/06/25 01:01:36;;;;;;;14.88;9.40;;;;;;;13.10;83.15;99365.91;4955403;28;20047;-68
2023/06/25 01:04:09;;;;;;;12.13;8.80;;;;;;;13.14;83.28;99339.72;4952786;28;20042;-65
2023/06/25 01:06:47;;;;;;;12.10;8.82;;;;;;;13.14;83.49;99342.41;4955244;28;20050;-64
2023/06/25 01:09:14;;;;;;;16.90;10.05;;;;;;;13.09;83.28;99335.59;4954027;28;20524;-67
2023/06/25 01:11:39;;;;;;;14.40;9.52;;;;;;;13.11;82.87;99346.19;4948471;28;20058;-68
2023/06/25 01:14:05;;;;;;;13.02;9.85;;;;;;;13.08;83.54;99367.88;4948118;28;20050;-68
2023/06/25 01:16:30;;;;;;;29.10;9.18;;;;;;;13.10;82.99;99345.34;4954169;28;20413;-68
2023/06/25 01:19:02;;;;;;;13.57;9.10;;;;;;;13.08;83.40;99362.53;4953954;28;20042;-69
2023/06/25 01:21:28;;;;;;;15.00;9.95;;;;;;;13.08;82.94;99374.09;4953883;28;20054;-68
2023/06/25 01:23:54;;;;;;;13.07;9.57;;;;;;;13.08;83.03;99351.81;4955352;28;20065;-68
2023/06/25 01:26:19;;;;;;;18.00;10.35;;;;;;;13.10;83.28;99341.81;4954191;28;20506;-71
2023/06/25 01:28:45;;;;;;;16.45;9.43;;;;;;;13.13;83.29;99354.09;4952328;28;20046;-70
2023/06/25 01:31:10;;;;;;;12.15;9.65;;;;;;;13.12;83.08;99363.94;4968235;28;20401;-69
2023/06/25 01:33:36;;;;;;;16.77;10.30;;;;;;;13.15;83.30;99347.66;4954858;28;20046;-70
2023/06/25 01:36:02;;;;;;;12.60;9.52;;;;;;;13.18;83.13;99351.91;4969280;28;20069;-70
2023/06/25 01:38:28;;;;;;;16.55;9.18;;;;;;;13.19;82.79;99375.88;4950292;28;20058;-70
2023/06/25 01:40:53;;;;;;;17.20;9.15;;;;;;;13.23;82.57;99361.22;4946079;28;20417;-70
2023/06/25 01:43:18;;;;;;;13.57;8.90;;;;;;;13.25;82.67;99366.44;4952478;28;20038;-64
2023/06/25 01:45:43;;;;;;;13.32;10.30;;;;;;;13.27;82.36;99367.16;4957706;28;20481;-65
2023/06/25 01:48:09;;;;;;;18.75;10.15;;;;;;;13.27;82.49;99359.97;4957338;28;20640;-65
2023/06/25 01:50:35;;;;;;;12.48;9.48;;;;;;;13.34;82.19;99385.22;4958848;28;20057;-65
2023/06/25 01:53:00;;;;;;;12.95;9.65;;;;;;;13.40;82.00;99378.50;4958704;28;20417;-65
2023/06/25 01:55:25;;;;;;;12.57;9.23;;;;;;;13.45;81.72;99378.94;4957418;28;20046;-62
2023/06/25 01:57:51;;;;;;;15.57;8.95;;;;;;;13.52;81.40;99377.44;4956982;28;20050;-63
2023/06/25 02:00:16;;;;;;;19.42;9.68;;;;;;;13.59;81.52;99367.00;4953971;28;20401;-63
2023/06/25 02:02:42;;;;;;;12.73;9.48;;;;;;;13.66;81.39;99389.59;4956365;28;20061;-64
2023/06/25 02:05:08;;;;;;;16.50;9.50;;;;;;;13.73;81.03;99390.75;4957973;28;20050;-64
2023/06/25 02:07:33;;;;;;;12.20;9.68;;;;;;;13.80;80.75;99371.31;4973394;28;20046;-64
2023/06/25 02:09:59;;;;;;;12.48;8.68;;;;;;;13.87;80.45;99382.34;4958212;28;20043;-63
2023/06/25 02:12:24;;;;;;;16.60;9.45;;;;;;;13.95;79.94;99378.97;4972875;28;20424;-63
2023/06/25 02:14:49;;;;;;;15.82;9.90;;;;;;;14.03;80.11;99393.38;4958081;28;20516;-64
2023/06/25 02:17:15;;;;;;;13.70;8.57;;;;;;;14.13;79.89;99377.31;4957798;28;20492;-64
2023/06/25 02:19:40;;;;;;;19.67;10.13;;;;;;;14.22;79.30;99370.28;4956709;28;20050;-64
2023/06/25 02:22:06;;;;;;;15.00;9.15;;;;;;;14.31;79.59;99369.44;4956474;28;20405;-64
2023/06/25 02:24:31;;;;;;;15.35;9.48;;;;;;;14.43;79.04;99373.72;4956931;28;20047;-64
2023/06/25 02:26:57;;;;;;;15.40;9.10;;;;;;;14.54;78.71;99354.81;4958106;28;20497;-64
2023/06/25 02:29:22;;;;;;;16.17;10.05;;;;;;;14.61;78.33;99374.69;4956290;28;20057;-64
2023/06/25 02:31:47;;;;;;;15.50;10.30;;;;;;;14.73;77.95;99370.03;4956826;28;20042;-64
2023/06/25 02:34:12;;;;;;;12.55;8.88;;;;;;;14.82;77.51;99391.50;4958078;28;20065;-65
2023/06/25 02:36:37;;;;;;;16.20;9.25;;;;;;;14.95;77.24;99376.94;4957974;28;20049;-65
2023/06/25 02:39:04;;;;;;;12.48;9.00;;;;;;;15.02;77.30;99294.81;4972848;28;20050;-66
2023/06/25 02:41:29;;;;;;;13.23;8.85;;;;;;;15.14;76.22;99299.00;4957512;28;20038;-65
2023/06/25 02:43:54;;;;;;;13.88;9.55;;;;;;;15.22;75.85;99309.88;4957927;28;20050;-66
2023/06/25 02:46:20;;;;;;;12.73;9.57;;;;;;;15.33;76.07;99309.69;4956638;28;20046;-66
2023/06/25 02:48:46;;;;;;;16.02;10.07;;;;;;;15.42;74.87;99303.44;4956319;28;20050;-66
2023/06/25 02:51:13;;;;;;;15.98;9.95;;;;;;;15.55;75.38;99297.75;4972587;28;20042;-64
2023/06/25 02:53:38;;;;;;;13.25;9.52;;;;;;;15.67;75.20;99306.47;4971678;28;20420;-64
2023/06/25 02:56:04;;;;;;;11.55;8.93;;;;;;;15.81;74.22;99305.94;4955264;28;20045;-66
2023/06/25 02:58:29;;;;;;;13.27;10.70;;;;;;;15.87;73.75;99302.66;4956421;28;20042;-66
2023/06/25 03:00:55;;;;;;;15.35;10.52;;;;;;;15.95;73.37;99306.25;4955968;28;20050;-64
2023/06/25 03:03:20;;;;;;;15.43;9.88;;;;;;;16.03;73.26;99315.44;4955924;28;20050;-64
2023/06/25 03:05:45;;;;;;;17.05;9.45;;;;;;;16.08;73.07;99308.59;4955270;28;20049;-64
2023/06/25 03:08:11;;;;;;;12.85;10.13;;;;;;;16.18;73.05;99306.66;4956230;28;20046;-64
2023/06/25 03:10:39;;;;;;;12.68;9.30;;;;;;;16.30;72.32;99309.97;4955143;28;20054;-66
2023/06/25 03:13:05;;;;;;;13.07;8.70;;;;;;;16.35;71.91;99307.69;4956001;28;20049;-68
2023/06/25 03:15:31;;;;;;;12.52;8.85;;;;;;;16.43;72.13;99313.13;4968496;28;20421;-70
2023/06/25 03:17:56;;;;;;;18.30;10.45;;;;;;;16.55;71.58;99313.72;4957102;28;20046;-70
2023/06/25 03:20:22;;;;;;;13.23;9.45;;;;;;;16.63;71.23;99316.50;4954357;28;20538;-71
2023/06/25 03:22:48;;;;;;;17.73;10.73;;;;;;;16.69;71.08;99311.38;4971808;28;20073;-70
2023/06/25 03:25:14;;;;;;;14.65;9.68;;;;;;;16.69;70.22;99316.75;4955430;28;20850;-70
2023/06/25 03:27:43;;;;;;;11.68;9.20;;;;;;;16.73;70.36;99314.56;4935064;28;20058;-69
2023/06/25 03:30:09;;;;;;;14.13;9.75;;;;;;;16.80;70.75;99309.41;4968806;28;20069;-69
2023/06/25 03:32:34;;;;;;;15.45;10.23;;;;;;;16.96;70.51;99318.44;4954369;28;20054;-75
2023/06/25 03:35:02;;;;;;;13.10;9.45;;;;;;;17.11;70.17;99320.56;4937706;28;20050;-67
2023/06/25 03:37:31;;;;;;;15.68;10.40;;;;;;;17.22;69.56;99317.59;4961922;28;20089;-69
2023/06/25 03:39:57;;;;;;;14.32;9.55;;;;;;;17.32;69.42;99318.31;4936540;28;20062;-70
2023/06/25 03:42:22;;;;;;;15.82;10.13;;;;;;;17.43;69.12;99328.81;4954156;28;20050;-70
2023/06/25 03:44:51;;;;;;;10.70;9.13;;;;;;;17.59;68.70;99320.81;4936087;28;20726;-69
2023/06/25 03:47:19;;;;;;;11.15;8.05;;;;;;;17.69;68.34;99326.97;4945691;28;20055;-69
2023/06/25 03:49:45;;;;;;;11.18;8.30;;;;;;;17.75;67.73;99331.69;4952978;28;20042;-68
2023/06/25 03:52:11;;;;;;;13.70;8.15;;;;;;;17.74;67.14;99331.84;4955070;28;20042;-71
2023/06/25 03:54:36;;;;;;;16.10;9.60;;;;;;;17.82;67.30;99325.66;4955125;28;20417;-69
2023/06/25 03:57:02;;;;;;;11.40;8.75;;;;;;;17.93;67.34;99336.16;4955070;28;20046;-69
2023/06/25 03:59:28;;;;;;;11.25;7.95;;;;;;;18.10;67.15;99329.78;4955113;28;20417;-69
2023/06/25 04:01:54;;;;;;;16.55;9.32;;;;;;;18.26;66.60;99328.97;4955051;28;20488;-68
2023/06/25 04:04:19;;;;;;;11.48;9.25;;;;;;;18.39;66.30;99326.63;4956206;28;20413;-69
2023/06/25 04:06:45;;;;;;;11.02;8.60;;;;;;;18.43;64.67;99328.81;4956310;28;20481;-69
2023/06/25 04:09:13;;;;;;;10.82;8.75;;;;;;;18.48;64.85;99321.06;4938256;28;20050;-69
2023/06/25 04:11:39;;;;;;;11.50;8.30;;;;;;;18.58;64.61;99334.44;4955015;28;20046;-69
2023/06/25 04:14:04;;;;;;;17.20;9.30;;;;;;;18.64;64.05;99327.50;4955166;28;20057;-70
2023/06/25 04:16:33;;;;;;;14.82;9.00;;;;;;;18.87;64.43;99336.63;4938754;28;20046;-70
2023/06/25 04:18:58;;;;;;;14.23;8.88;;;;;;;19.03;63.63;99325.81;4938926;28;20054;-69
2023/06/25 04:21:23;;;;;;;9.93;7.75;;;;;;;19.15;62.43;99327.13;4954750;28;20049;-69
2023/06/25 04:23:48;;;;;;;11.95;8.90;;;;;;;19.30;62.77;99323.72;4954714;28;20062;-68
2023/06/25 04:26:14;;;;;;;11.00;7.88;;;;;;;19.34;61.48;99325.06;4955141;28;20046;-68
2023/06/25 04:28:40;;;;;;;12.65;7.45;;;;;;;19.48;61.82;99332.44;4954953;28;20072;-69
2023/06/25 04:31:06;;;;;;;14.60;8.52;;;;;;;19.53;61.86;99327.38;4954906;28;20050;-69
2023/06/25 04:33:33;;;;;;;13.32;8.63;;;;;;;19.53;61.83;99321.97;4938884;28;20497;-69
2023/06/25 04:35:58;;;;;;;12.50;8.35;;;;;;;19.60;60.99;99320.28;4954818;28;20046;-69
2023/06/25 04:38:24;;;;;;;10.82;7.47;;;;;;;19.61;60.42;99321.13;4955011;28;20049;-69
2023/06/25 04:40:49;;;;;;;12.77;8.32;;;;;;;19.65;59.84;99326.00;4938304;28;20050;-69
2023/06/25 04:43:14;;;;;;;12.45;8.00;;;;;;;19.90;60.45;99327.56;4938514;28;20057;-69
2023/06/25 04:45:41;;;;;;;9.52;7.75;;;;;;;20.14;59.65;99325.75;4954703;28;20481;-69
2023/06/25 04:48:07;;;;;;;12.63;8.25;;;;;;;20.32;58.99;99320.88;4971125;28;20501;-69
2023/06/25 04:50:32;;;;;;;11.90;7.40;;;;;;;20.58;58.49;99320.56;4954700;28;20042;-70
2023/06/25 04:52:57;;;;;;;8.73;7.15;;;;;;;20.81;56.63;99313.25;4970876;28;20057;-70
2023/06/25 04:55:22;;;;;;;10.15;7.78;;;;;;;21.09;56.54;99315.38;4954466;28;20042;-70
2023/06/25 04:57:48;;;;;;;9.20;6.90;;;;;;;21.19;55.79;99319.53;4938517;28;20062;-70
2023/06/25 05:00:13;;;;;;;7.68;6.35;;;;;;;21.22;55.13;99315.63;4954190;28;20077;-69
2023/06/25 05:02:39;;;;;;;10.43;6.35;;;;;;;21.38;54.44;99316.28;4955719;28;20053;-70
2023/06/25 05:05:04;;;;;;;8.55;6.40;;;;;;;21.75;53.97;99309.06;4955615;28;20038;-69
2023/06/25 05:07:29;;;;;;;8.63;6.80;;;;;;;22.17;52.71;99318.34;4955840;28;20050;-69
2023/06/25 05:09:55;;;;;;;9.02;6.68;;;;;;;22.36;51.92;99317.72;4954552;28;20034;-70
2023/06/25 05:12:20;;;;;;;8.75;6.40;;;;;;;22.40;51.54;99319.03;4955600;28;20050;-67
2023/06/25 05:14:45;;;;;;;7.88;6.53;;;;;;;22.38;50.43;99305.63;4955524;28;20039;-69
2023/06/25 05:17:10;;;;;;;9.65;6.70;;;;;;;22.30;50.84;99305.78;4970632;28;20489;-69
2023/06/25 05:19:35;;;;;;;8.48;6.22;;;;;;;22.42;50.82;99300.66;4955461;28;20036;-70
2023/06/25 05:22:00;;;;;;;9.07;7.28;;;;;;;22.31;49.98;99306.59;4959167;28;20053;-71
2023/06/25 05:24:26;;;;;;;8.98;7.13;;;;;;;21.96;50.34;99306.41;4959425;28;20050;-71
2023/06/25 05:26:51;;;;;;;9.73;6.53;;;;;;;21.94;50.57;99304.91;4959554;28;20053;-71
2023/06/25 05:29:16;;;;;;;8.05;6.55;;;;;;;21.96;50.35;99308.28;4957908;28;20065;-70
2023/06/25 05:31:41;;;;;;;9.75;7.15;;;;;;;21.90;49.65;99299.00;4959262;28;20038;-69
2023/06/25 05:34:06;;;;;;;10.18;6.72;;;;;;;22.12;49.85;99305.38;4959073;28;20046;-69
2023/06/25 05:36:32;;;;;;;9.20;6.63;;;;;;;22.07;49.66;99296.94;4959044;28;20050;-70
2023/06/25 05:38:57;;;;;;;14.68;6.78;;;;;;;22.08;50.03;99298.63;4958932;28;20038;-69
2023/06/25 05:41:22;;;;;;;7.75;6.20;;;;;;;22.32;49.55;99300.16;4957703;28;20054;-69
2023/06/25 05:43:47;;;;;;;10.98;7.18;;;;;;;22.53;49.00;99299.31;4974187;28;20049;-70
2023/06/25 05:46:13;;;;;;;9.68;6.50;;;;;;;22.89;48.75;99302.81;4958920;28;20061;-69
2023/06/25 05:48:43;;;;;;;8.73;6.88;;;;;;;23.36;47.46;99295.81;4958509;28;20053;-69
2023/06/25 05:51:08;;;;;;;9.25;6.38;;;;;;;23.59;45.82;99293.66;4958981;28;20046;-72
2023/06/25 05:53:39;;;;;;;9.27;6.43;;;;;;;23.89;46.13;99292.34;4957624;28;20042;-70
2023/06/25 05:56:04;;;;;;;7.38;5.93;;;;;;;24.31;44.63;99287.66;4958784;28;20054;-70
2023/06/25 05:58:29;;;;;;;7.00;5.65;;;;;;;25.10;43.56;99281.44;4958714;28;20042;-70
2023/06/25 06:00:54;;;;;;;10.63;5.85;;;;;;;25.40;41.89;99285.34;4958593;28;20057;-69
2023/06/25 06:03:20;;;;;;;7.93;6.35;;;;;;;25.45;41.81;99293.75;4958583;28;20505;-71
2023/06/25 06:05:45;;;;;;;10.73;6.05;;;;;;;25.64;40.87;99275.66;4957296;28;20042;-70
2023/06/25 06:08:10;;;;;;;7.90;6.05;;;;;;;26.49;39.90;99274.41;4956733;28;20047;-70
2023/06/25 06:10:35;;;;;;;10.35;5.53;;;;;;;27.36;38.98;99270.72;4973565;28;20053;-71
2023/06/25 06:13:00;;;;;;;8.32;5.85;;;;;;;28.00;36.93;99273.97;4958180;28;20045;-70
2023/06/25 06:15:26;;;;;;;7.53;6.25;;;;;;;28.16;35.45;99273.34;4956238;28;20066;-70
2023/06/25 06:17:51;;;;;;;9.75;6.25;;;;;;;28.41;35.44;99281.47;4957914;28;20034;-70
2023/06/25 06:20:16;;;;;;;7.82;6.07;;;;;;;27.94;35.84;99280.38;4956497;28;20072;-71
2023/06/25 06:22:41;;;;;;;9.25;6.28;;;;;;;28.62;36.15;99282.81;4955459;28;20050;-70
2023/06/25 06:25:07;;;;;;;8.57;6.40;;;;;;;29.63;33.94;99274.31;4955774;28;20050;-71
2023/06/25 06:27:32;;;;;;;9.73;6.03;;;;;;;30.08;32.37;99265.34;4957998;28;20038;-70
2023/06/25 06:29:57;;;;;;;8.93;6.07;;;;;;;30.04;31.69;99269.66;4958118;28;20061;-70
2023/06/25 06:32:23;;;;;;;7.03;5.28;;;;;;;30.43;32.06;99276.19;4956717;28;20042;-70
2023/06/25 06:34:48;;;;;;;8.27;5.55;;;;;;;31.25;31.88;99277.38;4956986;28;20049;-69
2023/06/25 06:37:13;;;;;;;7.07;5.43;;;;;;;32.27;30.15;99285.09;4956138;28;20057;-70
2023/06/25 06:39:38;;;;;;;7.50;5.70;;;;;;;32.47;29.22;99284.47;4956033;28;20054;-71
2023/06/25 06:42:04;;;;;;;7.32;5.28;;;;;;;31.83;29.33;99273.22;4939489;28;20054;-71
2023/06/25 06:44:30;;;;;;;8.00;6.28;;;;;;;31.45;29.23;99267.72;4957540;28;20421;-70
2023/06/25 06:46:56;;;;;;;7.82;7.03;;;;;;;31.69;29.82;99263.69;4955716;28;20054;-71
2023/06/25 06:49:21;;;;;;;7.45;6.07;;;;;;;31.35;28.38;99266.50;4940400;28;20054;-71
2023/06/25 06:51:46;;;;;;;9.88;6.88;;;;;;;30.95;28.98;99263.91;4957647;28;20133;-69
2023/06/25 06:54:12;;;;;;;6.53;5.88;;;;;;;31.06;29.25;99267.66;4956270;28;20146;-70
2023/06/25 06:56:38;;;;;;;8.45;7.53;;;;;;;32.01;28.29;99272.06;4972506;28;20416;-70
2023/06/25 06:59:03;;;;;;;6.97;6.22;;;;;;;33.15;27.27;99269.06;4955269;28;20552;-70
2023/06/25 07:01:29;;;;;;;7.80;6.20;;;;;;;34.24;26.62;99266.31;4972416;28;20042;-70
2023/06/25 07:03:54;;;;;;;6.63;5.95;;;;;;;35.53;25.17;99266.94;4956180;28;20097;-71
2023/06/25 07:06:20;;;;;;;7.05;6.35;;;;;;;35.77;24.43;99266.34;4957323;28;20057;-71
2023/06/25 07:08:46;;;;;;;9.88;6.60;;;;;;;35.76;24.95;99276.59;4957353;28;20049;-71
2023/06/25 07:11:13;;;;;;;7.68;6.57;;;;;;;36.05;24.42;99262.03;4957230;28;20041;-71
2023/06/25 07:13:38;;;;;;;7.43;6.68;;;;;;;36.20;24.43;99270.28;4957398;28;20068;-71
2023/06/25 07:16:03;;;;;;;9.00;6.90;;;;;;;35.84;23.65;99266.84;4957076;28;20049;-71
2023/06/25 07:18:28;;;;;;;9.27;7.53;;;;;;;36.28;23.87;99264.97;4957008;28;20057;-72
2023/06/25 07:20:54;;;;;;;8.43;7.63;;;;;;;36.78;23.04;99260.22;4955484;28;20046;-71
2023/06/25 07:23:19;;;;;;;8.05;6.95;;;;;;;36.89;23.20;99266.53;4957201;28;20477;-71
2023/06/25 07:25:44;;;;;;;7.68;6.97;;;;;;;37.62;22.47;99261.66;4955474;28;20046;-71
2023/06/25 07:28:09;;;;;;;8.23;7.40;;;;;;;38.66;21.80;99252.47;4956786;28;20045;-71
2023/06/25 07:30:35;;;;;;;8.05;7.25;;;;;;;38.92;20.45;99267.63;4971842;28;20049;-71
2023/06/25 07:33:00;;;;;;;8.43;7.32;;;;;;;38.41;20.41;99259.22;4956586;28;20485;-71
2023/06/25 07:35:26;;;;;;;7.55;6.70;;;;;;;37.77;19.79;99269.81;4956695;28;20057;-70
2023/06/25 07:37:51;;;;;;;7.15;6.45;;;;;;;37.60;20.25;99266.63;4955618;28;20046;-70
2023/06/25 07:40:16;;;;;;;6.15;5.65;;;;;;;38.26;19.88;99256.69;4954640;28;20050;-70
2023/06/25 07:42:41;;;;;;;7.85;7.13;;;;;;;38.75;19.44;99253.41;4956236;28;20047;-72
2023/06/25 07:45:07;;;;;;;8.00;7.30;;;;;;;39.12;19.75;99253.38;4955591;28;20412;-73
2023/06/25 07:47:32;;;;;;;8.73;7.93;;;;;;;40.20;18.69;99250.91;4954601;28;20535;-72
2023/06/25 07:49:58;;;;;;;8.57;7.78;;;;;;;41.20;18.43;99259.97;4953234;28;20046;-70
2023/06/25 07:52:23;;;;;;;8.25;7.55;;;;;;;42.21;17.47;99252.66;4956382;28;20423;-70
2023/06/25 07:54:48;;;;;;;8.57;7.70;;;;;;;41.26;16.95;99257.88;4955941;28;20412;-69
2023/06/25 07:57:14;;;;;;;9.02;7.70;;;;;;;40.67;17.56;99242.31;4954883;28;20046;-70
2023/06/25 07:59:39;;;;;;;7.78;6.85;;;;;;;41.04;17.66;99250.31;4954888;28;20054;-71
2023/06/25 08:02:05;;;;;;;8.52;7.82;;;;;;;41.71;17.60;99250.19;4956200;28;20418;-72
2023/06/25 08:04:31;;;;;;;8.80;8.00;;;;;;;42.24;16.77;99251.97;4954978;28;20057;-71
2023/06/25 08:06:56;;;;;;;8.93;8.13;;;;;;;40.99;16.72;99237.28;4956207;28;20050;-70
2023/06/25 08:09:21;;;;;;;8.82;8.02;;;;;;;39.86;17.21;99226.25;4956242;28;20045;-71
2023/06/25 08:11:46;;;;;;;8.63;7.82;;;;;;;39.22;17.88;99225.28;4955758;28;20041;-70
2023/06/25 08:14:11;;;;;;;7.88;7.07;;;;;;;39.29;18.59;99224.03;4956314;28;20050;-70
2023/06/25 08:16:37;;;;;;;8.20;7.40;;;;;;;40.09;18.06;99226.31;4954283;28;20042;-69
2023/06/25 08:19:02;;;;;;;8.32;7.60;;;;;;;41.50;17.23;99223.91;4955920;28;20046;-70
2023/06/25 08:21:27;;;;;;;8.80;8.00;;;;;;;42.44;16.86;99226.16;4953922;28;20046;-70
2023/06/25 08:23:52;;;;;;;10.07;9.23;;;;;;;42.90;16.32;99213.41;4954457;28;20069;-70
2023/06/25 08:26:18;;;;;;;9.75;8.95;;;;;;;43.21;16.14;99221.63;4938442;28;20062;-71
2023/06/25 08:28:43;;;;;;;10.88;9.98;;;;;;;42.69;15.88;99214.09;4938524;28;20595;-70
2023/06/25 08:31:10;;;;;;;10.57;9.57;;;;;;;42.63;15.55;99215.41;4954462;28;20046;-71
2023/06/25 08:33:35;;;;;;;9.35;8.55;;;;;;;41.74;15.86;99220.72;4955804;28;20049;-70
2023/06/25 08:36:00;;;;;;;9.50;8.52;;;;;;;42.13;16.39;99205.81;4953644;28;20054;-71
2023/06/25 08:38:26;;;;;;;9.75;8.88;;;;;;;41.93;15.96;99215.66;4955822;28;20042;-71
2023/06/25 08:40:53;;;;;;;9.75;8.85;;;;;;;42.98;15.87;99215.38;4954150;28;20065;-69
2023/06/25 08:43:19;;;;;;;9.52;8.73;;;;;;;43.45;15.67;99208.66;4950693;28;20046;-71
2023/06/25 08:45:46;;;;;;;10.20;9.38;;;;;;;43.91;15.41;99206.09;4955704;28;20057;-70
2023/06/25 08:48:13;;;;;;;10.77;9.98;;;;;;;44.29;14.81;99203.19;4953780;28;20062;-71
2023/06/25 08:50:41;;;;;;;10.77;9.88;;;;;;;42.96;15.35;99198.88;4955800;28;20042;-70
2023/06/25 08:53:06;;;;;;;10.50;9.70;;;;;;;42.48;15.31;99201.91;4955317;28;20421;-70
2023/06/25 08:55:34;;;;;;;10.30;9.50;;;;;;;41.84;15.91;99200.81;4958318;28;20520;-70
2023/06/25 08:57:59;;;;;;;10.70;9.82;;;;;;;42.06;16.40;99197.91;4959679;28;20055;-70
2023/06/25 09:00:24;;;;;;;11.57;10.50;;;;;;;42.42;15.90;99192.03;4958149;28;20069;-71
2023/06/25 09:02:49;;;;;;;10.98;10.07;;;;;;;42.59;15.65;99186.41;4959860;28;20769;-69
2023/06/25 09:05:23;;;;;;;11.50;10.60;;;;;;;43.28;15.77;99185.44;4941848;28;20413;-70
2023/06/25 09:07:49;;;;;;;11.15;10.23;;;;;;;42.99;15.59;99184.19;4958248;28;20512;-71
2023/06/25 09:10:15;;;;;;;11.13;10.23;;;;;;;43.51;15.37;99178.38;4974481;28;20049;-70
2023/06/25 09:12:44;;;;;;;11.80;10.90;;;;;;;43.55;14.90;99181.34;4957327;28;20073;-69
2023/06/25 09:15:09;;;;;;;10.23;9.32;;;;;;;42.76;15.80;99174.34;4959386;28;20419;-70
2023/06/25 09:17:36;;;;;;;11.07;10.07;;;;;;;42.67;15.73;99171.53;4959064;28;20421;-71
2023/06/25 09:20:06;;;;;;;10.98;9.98;;;;;;;42.37;15.42;99178.19;4925457;28;20050;-70
2023/06/25 09:22:32;;;;;;;12.07;11.02;;;;;;;42.76;15.06;99177.13;4957744;28;20058;-70
2023/06/25 09:24:57;;;;;;;10.35;9.55;;;;;;;42.96;15.44;99162.44;4959093;28;20042;-72
2023/06/25 09:27:22;;;;;;;11.20;10.30;;;;;;;43.42;15.08;99167.22;4958864;28;20057;-71
2023/06/25 09:29:48;;;;;;;12.00;11.00;;;;;;;43.55;15.11;99162.53;4957225;28;20050;-71
2023/06/25 09:32:16;;;;;;;11.32;10.43;;;;;;;44.36;15.14;99164.16;4967327;28;20863;-70
2023/06/25 09:34:42;;;;;;;12.07;10.90;;;;;;;44.44;14.48;99166.88;4959195;28;20045;-70
2023/06/25 09:37:07;;;;;;;11.60;10.60;;;;;;;44.37;14.58;99162.97;4959522;28;20054;-70
2023/06/25 09:39:33;;;;;;;13.18;12.20;;;;;;;45.25;14.50;99156.09;4957702;28;20046;-71
2023/06/25 09:42:00;;;;;;;14.13;13.02;;;;;;;46.33;13.71;99167.59;4974260;28;20050;-71
2023/06/25 09:44:26;;;;;;;15.57;14.32;;;;;;;46.34;13.63;99163.59;4959722;28;20042;-71
2023/06/25 09:47:00;;;;;;;14.73;13.57;;;;;;;46.76;13.56;99152.72;4941966;28;20061;-70
2023/06/25 09:49:30;;;;;;;16.38;15.15;;;;;;;46.74;13.46;99155.91;4957615;28;20053;-70
2023/06/25 09:52:02;;;;;;;15.15;13.93;;;;;;;46.39;13.26;99166.19;4956954;28;20057;-70
2023/06/25 09:54:29;;;;;;;15.13;14.02;;;;;;;44.49;14.19;99157.38;4958612;28;20038;-71
2023/06/25 09:56:57;;;;;;;14.23;13.13;;;;;;;44.32;14.75;99151.91;4958541;28;20049;-70
2023/06/25 09:59:24;;;;;;;13.50;11.82;;;;;;;45.17;14.95;99144.59;4941076;28;20057;-70
2023/06/25 10:01:50;;;;;;;14.43;13.32;;;;;;;45.87;14.05;99145.25;4957967;28;20409;-71
2023/06/25 10:04:15;;;;;;;14.15;13.05;;;;;;;46.40;13.76;99140.41;4939715;28;20061;-71
2023/06/25 10:06:40;;;;;;;14.90;13.90;;;;;;;46.47;13.53;99145.47;4957967;28;20046;-71
2023/06/25 10:09:07;;;;;;;14.57;13.18;;;;;;;45.62;13.49;99137.19;4958226;28;20057;-71
2023/06/25 10:11:32;;;;;;;13.30;12.30;;;;;;;45.01;14.22;99140.81;4940856;28;20054;-72
2023/06/25 10:14:01;;;;;;;14.70;13.35;;;;;;;44.87;13.93;99140.31;4956780;28;20046;-71
2023/06/25 10:16:32;;;;;;;12.68;11.75;;;;;;;45.34;13.88;99140.72;4956863;28;20042;-72
2023/06/25 10:18:58;;;;;;;14.63;13.18;;;;;;;45.60;13.64;99142.38;4940406;28;20069;-70
2023/06/25 10:21:25;;;;;;;13.90;12.80;;;;;;;44.69;14.01;99139.66;4958181;28;20069;-69
2023/06/25 10:24:01;;;;;;;12.30;11.30;;;;;;;43.83;14.57;99140.38;4956754;28;20073;-70
2023/06/25 10:26:28;;;;;;;12.82;11.88;;;;;;;42.95;14.77;99131.91;4957965;28;20065;-71
2023/06/25 10:28:53;;;;;;;11.88;10.88;;;;;;;42.80;15.00;99124.84;4940213;28;20056;-70
2023/06/25 10:31:18;;;;;;;15.57;11.70;;;;;;;42.79;15.13;99125.19;4958073;28;20053;-71
2023/06/25 10:33:44;;;;;;;12.38;11.25;;;;;;;42.65;15.23;99122.56;4956321;28;20053;-71
2023/06/25 10:36:10;;;;;;;12.18;10.98;;;;;;;41.54;16.06;99119.41;4957538;28;20062;-71
2023/06/25 10:38:35;;;;;;;11.13;10.07;;;;;;;39.80;16.75;99106.66;4957849;28;20053;-70
2023/06/25 10:41:00;;;;;;;10.38;9.13;;;;;;;38.04;18.62;99115.25;4955986;28;20426;-71
2023/06/25 10:43:25;;;;;;;9.93;9.02;;;;;;;36.32;19.00;99112.56;4956466;28;20505;-70
2023/06/25 10:45:53;;;;;;;9.38;8.48;;;;;;;34.47;20.49;99115.53;4955691;28;20058;-70
2023/06/25 10:48:19;;;;;;;9.63;7.80;;;;;;;33.01;21.28;99121.47;4953616;28;20046;-70
2023/06/25 10:50:45;;;;;;;9.70;7.82;;;;;;;31.48;22.62;99116.53;4952377;28;20061;-69
2023/06/25 10:53:13;;;;;;;8.80;7.68;;;;;;;30.42;23.28;99113.06;4957400;28;20038;-71
2023/06/25 10:55:43;;;;;;;9.68;8.15;;;;;;;29.85;24.21;99120.59;4956177;28;20046;-68
2023/06/25 10:58:09;;;;;;;9.20;7.72;;;;;;;29.10;25.02;99121.56;4956117;28;20046;-70
2023/06/25 11:00:34;;;;;;;10.38;7.78;;;;;;;28.17;25.80;99129.75;4959025;28;20509;-72
2023/06/25 11:03:00;;;;;;;10.05;7.45;;;;;;;27.75;27.39;99129.75;4955063;28;20073;-71
2023/06/25 11:05:56;;;;;;;9.55;7.05;;;;;;;27.39;27.77;99127.91;4960564;28;20054;-70
2023/06/25 11:08:25;;;;;;;8.90;7.68;;;;;;;26.84;29.14;99132.53;4900410;29;20601;-70
2023/06/25 11:10:50;;;;;;;10.25;7.70;;;;;;;26.56;29.25;99122.09;4901814;28;20051;-72
2023/06/25 11:13:15;;;;;;;11.65;8.07;;;;;;;26.32;28.97;99117.47;4931304;28;20050;-70
2023/06/25 11:15:40;;;;;;;9.27;7.35;;;;;;;26.22;29.34;99111.66;4932274;28;20054;-70
2023/06/25 11:18:10;;;;;;;10.20;7.95;;;;;;;26.20;29.43;99113.75;4931416;28;20059;-69
2023/06/25 11:20:38;;;;;;;9.43;7.72;;;;;;;25.95;29.72;99121.97;4932125;28;20050;-70